Terminal Aerodrome Forecast
Issued by NWS Jackson, KY

Home | Current Version | Previous Version | Text Only | Print | Product List | Glossary On
Versions: 1 2 3 4 5 6 7 8 9 10 11 12 13
000
FTUS43 KJKL 161138
TAFJKL
TAF
KJKL 161138Z 1612/1712 31007KT 3SM -SN BR SCT006 OVC010
     FM170000 31006KT 4SM -SHSN BR SCT015 BKN025
     FM170900 VRB04KT P6SM BKN015=

USA.gov is the U.S. government's official web portal to all federal, state and local government web resources and services.